createdAt,value
2023-02-06T00:01:49.432Z,-5.10
2023-02-06T00:04:19.918Z,-5.10
2023-02-06T00:06:50.002Z,-5.10
2023-02-06T00:09:19.956Z,-5.10
2023-02-06T00:11:49.936Z,-5.10
2023-02-06T00:14:19.925Z,-5.00
2023-02-06T00:16:52.519Z,-5.00
2023-02-06T00:19:22.458Z,-5.00
2023-02-06T00:21:52.433Z,-5.00
2023-02-06T00:24:22.413Z,-5.10
2023-02-06T00:26:52.375Z,-5.10
2023-02-06T00:29:22.295Z,-5.10
2023-02-06T00:31:54.838Z,-5.00
2023-02-06T00:34:24.758Z,-5.00
2023-02-06T00:36:54.742Z,-5.00
2023-02-06T00:39:24.763Z,-5.00
2023-02-06T00:41:55.819Z,-5.00
2023-02-06T00:44:25.891Z,-5.00
2023-02-06T00:46:58.998Z,-5.00
2023-02-06T00:49:28.972Z,-5.00
2023-02-06T00:51:58.894Z,-5.00
2023-02-06T00:54:28.941Z,-5.00
2023-02-06T00:57:00.122Z,-5.00
2023-02-06T00:59:30.112Z,-5.10
2023-02-06T01:02:03.915Z,-5.10
2023-02-06T01:04:34.230Z,-5.10
2023-02-06T01:07:04.223Z,-5.10
2023-02-06T01:09:34.229Z,-5.20
2023-02-06T01:12:04.186Z,-5.20
2023-02-06T01:14:34.140Z,-5.20
2023-02-06T01:17:06.798Z,-5.40
2023-02-06T01:19:36.739Z,-5.40
2023-02-06T01:22:06.736Z,-5.60
2023-02-06T01:24:36.665Z,-5.70
2023-02-06T01:27:06.671Z,-5.70
2023-02-06T01:29:36.613Z,-5.70
2023-02-06T01:32:09.253Z,-5.70
2023-02-06T01:34:39.231Z,-5.70
2023-02-06T01:37:09.185Z,-5.70
2023-02-06T01:39:39.265Z,-5.70
2023-02-06T01:42:09.323Z,-5.70
2023-02-06T01:44:39.690Z,-5.70
2023-02-06T01:47:13.393Z,-5.70
2023-02-06T01:49:45.774Z,-5.70
2023-02-06T01:52:19.860Z,-5.80
2023-02-06T01:54:53.455Z,-5.80
2023-02-06T01:57:24.202Z,-5.80
2023-02-06T01:59:56.513Z,-5.90
2023-02-06T02:02:30.115Z,-5.90
2023-02-06T02:05:00.195Z,-5.90
2023-02-06T02:07:32.024Z,-5.90
2023-02-06T02:10:02.129Z,-5.90
2023-02-06T02:12:32.046Z,-5.90
2023-02-06T02:15:02.404Z,-6.00
2023-02-06T02:17:43.213Z,-6.00
2023-02-06T02:20:36.201Z,-6.00
2023-02-06T02:23:15.900Z,-6.00
2023-02-06T02:26:24.664Z,-6.00
2023-02-06T02:29:27.946Z,-6.10
2023-02-06T02:32:24.256Z,-6.10
2023-02-06T02:35:05.076Z,-6.10
2023-02-06T02:37:51.468Z,-6.10
2023-02-06T02:40:28.080Z,-6.10
2023-02-06T02:43:07.359Z,-6.00
2023-02-06T02:45:42.842Z,-6.00
2023-02-06T02:48:15.989Z,-6.00
2023-02-06T02:50:51.419Z,-5.90
2023-02-06T02:53:22.085Z,-6.00
2023-02-06T02:55:52.029Z,-6.00
2023-02-06T02:58:26.793Z,-5.90
2023-02-06T03:01:00.635Z,-6.00
2023-02-06T03:03:33.310Z,-6.00
2023-02-06T03:06:22.032Z,-6.00
2023-02-06T03:08:59.605Z,-6.00
2023-02-06T03:11:30.470Z,-5.90
2023-02-06T03:14:05.487Z,-5.90
2023-02-06T03:16:40.818Z,-6.00
2023-02-06T03:19:14.764Z,-6.00
2023-02-06T03:21:48.118Z,-6.00
2023-02-06T03:24:39.369Z,-5.90
2023-02-06T03:27:12.487Z,-5.90
2023-02-06T03:29:43.812Z,-6.00
2023-02-06T03:32:18.333Z,-6.00
2023-02-06T03:34:51.289Z,-6.10
2023-02-06T03:37:24.608Z,-6.10
2023-02-06T03:39:54.677Z,-6.20
2023-02-06T03:42:25.765Z,-6.30
2023-02-06T03:44:59.224Z,-6.30
2023-02-06T03:47:29.605Z,-6.20
2023-02-06T03:50:01.404Z,-6.20
2023-02-06T03:52:39.562Z,-6.20
2023-02-06T03:55:12.725Z,-6.30
2023-02-06T03:57:43.951Z,-6.40
2023-02-06T04:00:15.514Z,-6.50
2023-02-06T04:02:46.198Z,-6.50
2023-02-06T04:05:17.640Z,-6.40
2023-02-06T04:07:50.235Z,-6.50
2023-02-06T04:10:20.391Z,-6.40
2023-02-06T04:12:50.311Z,-6.50
2023-02-06T04:15:20.510Z,-6.70
2023-02-06T04:18:00.069Z,-6.70
2023-02-06T04:20:31.795Z,-6.80
2023-02-06T04:23:04.384Z,-6.90
2023-02-06T04:25:34.522Z,-6.90
2023-02-06T04:28:05.894Z,-6.90
2023-02-06T04:30:35.990Z,-6.90
2023-02-06T04:33:05.995Z,-6.90
2023-02-06T04:35:36.140Z,-7.00
2023-02-06T04:38:08.923Z,-7.00
2023-02-06T04:40:38.894Z,-7.00
2023-02-06T04:43:08.818Z,-7.00
2023-02-06T04:45:38.986Z,-7.00
2023-02-06T04:48:09.242Z,-7.00
2023-02-06T04:50:39.204Z,-7.00
2023-02-06T04:53:11.787Z,-7.00
2023-02-06T04:55:41.754Z,-7.00
2023-02-06T04:58:11.969Z,-7.00
2023-02-06T05:00:41.962Z,-7.00
2023-02-06T05:03:11.916Z,-7.00
2023-02-06T05:05:41.869Z,-6.90
2023-02-06T05:08:14.414Z,-6.80
2023-02-06T05:10:44.326Z,-6.80
2023-02-06T05:13:14.948Z,-6.80
2023-02-06T05:15:44.901Z,-6.80
2023-02-06T05:18:15.163Z,-6.80
2023-02-06T05:20:45.216Z,-6.80
2023-02-06T05:23:17.752Z,-6.80
2023-02-06T05:25:47.704Z,-6.80
2023-02-06T05:28:17.730Z,-6.70
2023-02-06T05:30:47.810Z,-6.80
2023-02-06T05:33:19.049Z,-6.80
2023-02-06T05:35:49.222Z,-6.80
2023-02-06T05:38:22.082Z,-6.80
2023-02-06T05:40:53.830Z,-6.70
2023-02-06T05:43:23.761Z,-6.70
2023-02-06T05:45:53.757Z,-6.60
2023-02-06T05:48:23.730Z,-6.60
2023-02-06T05:50:53.759Z,-6.60
2023-02-06T05:53:26.641Z,-6.60
2023-02-06T05:55:56.604Z,-6.60
2023-02-06T05:58:26.624Z,-6.60
2023-02-06T06:00:56.566Z,-6.60
2023-02-06T06:03:26.522Z,-6.60
2023-02-06T06:05:56.924Z,-6.50
2023-02-06T06:08:29.587Z,-6.50
2023-02-06T06:11:01.790Z,-6.60
2023-02-06T06:13:32.091Z,-6.50
2023-02-06T06:16:02.090Z,-6.50
2023-02-06T06:18:32.112Z,-6.50
2023-02-06T06:21:02.066Z,-6.50
2023-02-06T06:23:34.665Z,-6.40
2023-02-06T06:26:04.703Z,-6.40
2023-02-06T06:28:36.040Z,-6.40
2023-02-06T06:31:06.732Z,-6.40
2023-02-06T06:33:37.211Z,-6.40
2023-02-06T06:36:08.013Z,-6.30
2023-02-06T06:38:40.870Z,-6.30
2023-02-06T06:41:10.884Z,-6.30
2023-02-06T06:43:42.349Z,-6.30
2023-02-06T06:46:12.258Z,-6.30
2023-02-06T06:48:42.196Z,-6.30
2023-02-06T06:51:12.160Z,-6.30
2023-02-06T06:53:44.680Z,-6.20
2023-02-06T06:56:16.193Z,-6.20
2023-02-06T06:58:46.141Z,-6.10
2023-02-06T07:01:16.163Z,-6.10
2023-02-06T07:03:48.489Z,-6.00
2023-02-06T07:06:18.906Z,-6.00
2023-02-06T07:08:51.423Z,-6.00
2023-02-06T07:11:21.372Z,-5.90
2023-02-06T07:13:51.332Z,-5.80
2023-02-06T07:16:21.300Z,-5.80
2023-02-06T07:18:51.267Z,-5.80
2023-02-06T07:21:21.158Z,-5.70
2023-02-06T07:23:53.723Z,-5.60
2023-02-06T07:26:23.742Z,-5.60
2023-02-06T07:28:53.645Z,-5.50
2023-02-06T07:31:24.104Z,-5.40
2023-02-06T07:33:54.061Z,-5.30
2023-02-06T07:36:24.073Z,-5.30
2023-02-06T07:38:56.662Z,-5.20
2023-02-06T07:41:26.656Z,-5.10
2023-02-06T07:43:56.594Z,-5.00
2023-02-06T07:46:26.634Z,-4.90
2023-02-06T07:48:56.673Z,-4.80
2023-02-06T07:51:26.670Z,-4.80
2023-02-06T07:53:59.280Z,-4.70
2023-02-06T07:56:29.407Z,-4.60
2023-02-06T07:58:59.332Z,-4.50
2023-02-06T08:01:29.355Z,-4.60
2023-02-06T08:03:59.503Z,-4.60
2023-02-06T08:06:29.964Z,-4.60
2023-02-06T08:09:02.544Z,-4.50
2023-02-06T08:11:33.413Z,-4.30
2023-02-06T08:14:03.348Z,-4.40
2023-02-06T08:16:33.512Z,-4.20
2023-02-06T08:19:03.493Z,-4.20
2023-02-06T08:21:33.473Z,-4.20
2023-02-06T08:24:06.267Z,-4.10
2023-02-06T08:26:36.639Z,-4.30
2023-02-06T08:29:08.164Z,-4.20
2023-02-06T08:31:39.677Z,-4.20
2023-02-06T08:34:11.050Z,-4.10
2023-02-06T08:36:43.166Z,-4.30
2023-02-06T08:39:19.352Z,-4.30
2023-02-06T08:41:49.990Z,-4.10
2023-02-06T08:44:21.240Z,-4.00
2023-02-06T08:46:58.771Z,-4.00
2023-02-06T08:49:31.941Z,-3.90
2023-02-06T08:52:02.607Z,-3.90
2023-02-06T08:54:38.406Z,-3.70
2023-02-06T08:57:10.058Z,-3.80
2023-02-06T08:59:40.047Z,-3.80
2023-02-06T09:02:10.010Z,-3.70
2023-02-06T09:04:40.249Z,-3.70
2023-02-06T09:07:10.181Z,-3.50
2023-02-06T09:09:42.835Z,-3.60
2023-02-06T09:12:12.803Z,-3.60
2023-02-06T09:14:42.758Z,-3.60
2023-02-06T09:17:12.712Z,-3.60
2023-02-06T09:19:42.849Z,-3.60
2023-02-06T09:22:12.779Z,-3.80
2023-02-06T09:24:45.649Z,-3.60
2023-02-06T09:27:15.591Z,-3.40
2023-02-06T09:29:46.895Z,-3.30
2023-02-06T09:32:16.892Z,-3.20
2023-02-06T09:34:48.351Z,-3.00
2023-02-06T09:37:18.893Z,-2.90
2023-02-06T09:39:51.405Z,-3.00
2023-02-06T09:42:24.338Z,-2.70
2023-02-06T09:44:56.922Z,-2.70
2023-02-06T09:47:29.510Z,-2.80
2023-02-06T09:50:02.828Z,-2.70
2023-02-06T09:52:51.033Z,-2.60
2023-02-06T09:55:30.894Z,-2.60
2023-02-06T09:58:05.486Z,-2.70
2023-02-06T10:00:42.851Z,-2.70
2023-02-06T10:03:37.426Z,-2.40
2023-02-06T10:06:21.603Z,-2.40
2023-02-06T10:08:56.817Z,-2.40
2023-02-06T10:11:40.496Z,-2.40
2023-02-06T10:14:17.365Z,-2.30
2023-02-06T10:16:49.934Z,-2.10
2023-02-06T10:19:32.258Z,-2.30
2023-02-06T10:22:05.040Z,-2.30
2023-02-06T10:24:40.941Z,-2.20
2023-02-06T10:27:16.436Z,-2.20
2023-02-06T10:29:48.562Z,-2.40
2023-02-06T10:32:30.447Z,-2.40
2023-02-06T10:35:19.233Z,-2.60
2023-02-06T10:38:21.182Z,-2.50
2023-02-06T10:40:56.183Z,-2.50
2023-02-06T10:43:37.309Z,-2.50
2023-02-06T10:46:20.709Z,-2.40
2023-02-06T10:48:58.208Z,-2.50
2023-02-06T10:51:33.578Z,-2.50
2023-02-06T10:54:05.347Z,-2.50
2023-02-06T10:56:46.238Z,-2.50
2023-02-06T10:59:25.406Z,-2.50
2023-02-06T11:02:01.710Z,-2.60
2023-02-06T11:04:37.537Z,-2.50
2023-02-06T11:07:11.660Z,-2.60
2023-02-06T11:09:41.633Z,-2.60
2023-02-06T11:12:21.751Z,-2.60
2023-02-06T11:14:55.371Z,-2.70
2023-02-06T11:17:28.328Z,-2.70
2023-02-06T11:20:05.347Z,-2.60
2023-02-06T11:22:51.048Z,-2.50
2023-02-06T11:25:27.451Z,-2.40
2023-02-06T11:27:57.766Z,-2.40
2023-02-06T11:30:37.541Z,-2.50
2023-02-06T11:33:10.832Z,-2.40
2023-02-06T11:35:43.015Z,-2.50
2023-02-06T11:38:20.748Z,-2.40
2023-02-06T11:41:00.713Z,-2.60
2023-02-06T11:43:33.299Z,-2.70
2023-02-06T11:46:19.664Z,-2.50
2023-02-06T11:48:50.458Z,-2.70
2023-02-06T11:51:20.583Z,-2.80
2023-02-06T11:54:01.379Z,-2.70
2023-02-06T11:56:33.351Z,-2.70
2023-02-06T11:59:09.032Z,-2.70
2023-02-06T12:01:46.651Z,-2.80
2023-02-06T12:04:24.736Z,-2.70
2023-02-06T12:07:01.416Z,-2.60
2023-02-06T12:09:31.707Z,-2.80
2023-02-06T12:12:04.830Z,-2.70
2023-02-06T12:14:40.225Z,-2.70
2023-02-06T12:17:25.379Z,-2.80
2023-02-06T12:20:01.901Z,-3.00
2023-02-06T12:22:36.285Z,-3.10
2023-02-06T12:25:07.637Z,-2.90
2023-02-06T12:27:39.796Z,-2.90
2023-02-06T12:30:18.908Z,-2.90
2023-02-06T12:32:55.744Z,-3.00
2023-02-06T12:35:34.993Z,-3.00
2023-02-06T12:38:09.329Z,-2.90
2023-02-06T12:40:45.914Z,-2.90
2023-02-06T12:43:17.850Z,-2.90
2023-02-06T12:45:51.895Z,-2.80
2023-02-06T12:48:28.814Z,-2.90
2023-02-06T12:51:06.637Z,-2.90
2023-02-06T12:53:40.146Z,-2.90
2023-02-06T12:56:19.699Z,-2.70
2023-02-06T12:58:55.182Z,-2.70
2023-02-06T13:01:37.161Z,-2.70
2023-02-06T13:04:13.072Z,-2.30
2023-02-06T13:06:49.293Z,-2.20
2023-02-06T13:09:22.906Z,-2.20
2023-02-06T13:11:54.431Z,-2.10
2023-02-06T13:14:26.276Z,-2.20
2023-02-06T13:16:58.893Z,-2.10
2023-02-06T13:19:47.888Z,-2.40
2023-02-06T13:22:26.793Z,-2.60
2023-02-06T13:25:00.536Z,-2.60
2023-02-06T13:27:40.505Z,-2.60
2023-02-06T13:30:26.061Z,-2.60
2023-02-06T13:32:59.718Z,-2.70
2023-02-06T13:35:33.716Z,-2.60
2023-02-06T13:38:15.441Z,-2.60
2023-02-06T13:40:45.373Z,-2.60
2023-02-06T13:43:20.117Z,-2.60
2023-02-06T13:45:54.048Z,-2.60
2023-02-06T13:48:47.113Z,-2.60
2023-02-06T13:51:55.304Z,-2.60
2023-02-06T13:54:53.334Z,-2.60
2023-02-06T13:57:46.389Z,-2.80
2023-02-06T14:00:22.828Z,-2.90
2023-02-06T14:02:54.655Z,-2.90
2023-02-06T14:05:29.160Z,-2.90
2023-02-06T14:08:10.932Z,-2.70
2023-02-06T14:11:01.637Z,-2.90
2023-02-06T14:13:40.950Z,-2.90
2023-02-06T14:16:21.898Z,-2.80
2023-02-06T14:18:56.605Z,-2.80
2023-02-06T14:21:35.472Z,-2.80
2023-02-06T14:24:16.567Z,-2.80
2023-02-06T14:26:56.139Z,-2.90
2023-02-06T14:29:32.941Z,-2.90
2023-02-06T14:32:24.546Z,-2.90
2023-02-06T14:35:07.233Z,-2.90
2023-02-06T14:37:47.794Z,-2.90
2023-02-06T14:40:22.058Z,-3.00
2023-02-06T14:42:56.514Z,-3.00
2023-02-06T14:45:38.563Z,-3.10
2023-02-06T14:48:21.086Z,-3.10
2023-02-06T14:50:55.523Z,-3.20
2023-02-06T14:53:28.986Z,-3.10
2023-02-06T14:56:09.939Z,-3.10
2023-02-06T14:58:46.243Z,-3.20
2023-02-06T15:01:22.802Z,-3.20
2023-02-06T15:03:55.314Z,-3.20
2023-02-06T15:06:36.699Z,-3.10
2023-02-06T15:09:07.880Z,-3.30
2023-02-06T15:11:38.197Z,-3.40
2023-02-06T15:14:34.911Z,-3.20
2023-02-06T15:17:05.333Z,-3.40
2023-02-06T15:19:36.689Z,-3.50
2023-02-06T15:22:09.254Z,-3.60
2023-02-06T15:24:59.081Z,-3.60
2023-02-06T15:27:32.129Z,-3.70
2023-02-06T15:30:06.700Z,-3.70
2023-02-06T15:32:38.642Z,-3.70
2023-02-06T15:35:21.860Z,-3.80
2023-02-06T15:37:52.378Z,-3.90
2023-02-06T15:40:26.318Z,-4.00
2023-02-06T15:42:56.571Z,-3.80
2023-02-06T15:45:31.288Z,-4.00
2023-02-06T15:48:02.017Z,-4.10
2023-02-06T15:50:32.033Z,-4.30
2023-02-06T15:53:02.069Z,-4.40
2023-02-06T15:55:33.306Z,-4.50
2023-02-06T15:58:05.118Z,-4.50
2023-02-06T16:00:39.461Z,-4.60
2023-02-06T16:03:18.036Z,-4.70
2023-02-06T16:05:48.817Z,-4.70
2023-02-06T16:08:22.547Z,-4.80
2023-02-06T16:10:53.597Z,-4.90
2023-02-06T16:13:27.027Z,-5.00
2023-02-06T16:16:21.744Z,-5.00
2023-02-06T16:18:53.522Z,-5.10
2023-02-06T16:21:29.901Z,-5.20
2023-02-06T16:24:09.164Z,-5.20
2023-02-06T16:26:47.110Z,-5.30
2023-02-06T16:29:27.053Z,-5.40
2023-02-06T16:32:05.284Z,-5.40
2023-02-06T16:34:39.445Z,-5.50
2023-02-06T16:37:12.989Z,-5.60
2023-02-06T16:39:45.012Z,-5.70
2023-02-06T16:42:17.410Z,-5.80
2023-02-06T16:44:50.145Z,-6.00
2023-02-06T16:47:24.444Z,-6.00
2023-02-06T16:49:54.425Z,-6.10
2023-02-06T16:52:27.566Z,-6.20
2023-02-06T16:54:59.087Z,-6.20
2023-02-06T16:57:32.041Z,-6.30
2023-02-06T17:00:02.183Z,-6.40
2023-02-06T17:02:34.769Z,-6.50
2023-02-06T17:05:05.337Z,-6.60
2023-02-06T17:07:35.495Z,-6.70
2023-02-06T17:10:06.341Z,-6.70
2023-02-06T17:12:37.207Z,-6.80
2023-02-06T17:15:08.139Z,-6.80
2023-02-06T17:17:40.836Z,-6.80
2023-02-06T17:20:20.360Z,-6.90
2023-02-06T17:22:50.955Z,-6.90
2023-02-06T17:25:21.113Z,-7.00
2023-02-06T17:27:51.055Z,-7.00
2023-02-06T17:30:22.638Z,-7.10
2023-02-06T17:32:55.532Z,-7.10
2023-02-06T17:35:25.685Z,-7.20
2023-02-06T17:37:55.937Z,-7.10
2023-02-06T17:40:28.046Z,-7.00
2023-02-06T17:42:59.104Z,-7.40
2023-02-06T17:45:29.397Z,-7.30
2023-02-06T17:48:01.966Z,-7.40
2023-02-06T17:50:32.699Z,-7.40
2023-02-06T17:53:03.775Z,-7.40
2023-02-06T17:55:33.843Z,-7.40
2023-02-06T17:58:04.001Z,-7.40
2023-02-06T18:00:34.385Z,-7.40
2023-02-06T18:03:07.826Z,-7.40
2023-02-06T18:05:38.122Z,-7.40
2023-02-06T18:08:08.399Z,-7.50
2023-02-06T18:10:38.925Z,-7.50
2023-02-06T18:13:09.545Z,-7.50
2023-02-06T18:15:39.679Z,-7.50
2023-02-06T18:18:12.423Z,-7.50
2023-02-06T18:20:43.840Z,-7.50
2023-02-06T18:23:14.229Z,-7.50
2023-02-06T18:25:44.919Z,-7.60
2023-02-06T18:28:17.307Z,-7.60
2023-02-06T18:30:47.815Z,-7.60
2023-02-06T18:33:20.349Z,-7.60
2023-02-06T18:35:51.471Z,-7.60
2023-02-06T18:38:21.525Z,-7.60
2023-02-06T18:40:51.475Z,-7.70
2023-02-06T18:43:19.008Z,-7.80
2023-02-06T18:45:48.984Z,-7.80
2023-02-06T18:48:21.972Z,-7.80
2023-02-06T18:50:52.610Z,-7.80
2023-02-06T18:53:22.597Z,-7.90
2023-02-06T18:56:01.813Z,-7.90
2023-02-06T18:58:31.833Z,-7.90
2023-02-06T19:01:02.010Z,-8.00
2023-02-06T19:03:34.595Z,-8.00
2023-02-06T19:06:04.524Z,-8.10
2023-02-06T19:08:34.611Z,-8.10
2023-02-06T19:11:04.605Z,-8.10
2023-02-06T19:13:34.510Z,-8.20
2023-02-06T19:16:09.012Z,-8.10
2023-02-06T19:18:42.704Z,-8.20
2023-02-06T19:21:16.013Z,-8.20
2023-02-06T19:23:46.611Z,-8.10
2023-02-06T19:26:18.653Z,-8.10
2023-02-06T19:28:48.836Z,-8.10
2023-02-06T19:31:24.090Z,-8.10
2023-02-06T19:33:58.170Z,-8.10
2023-02-06T19:36:29.497Z,-8.10
2023-02-06T19:39:00.902Z,-8.10
2023-02-06T19:41:33.850Z,-8.10
2023-02-06T19:44:06.656Z,-8.10
2023-02-06T19:46:37.786Z,-8.10
2023-02-06T19:49:11.376Z,-8.20
2023-02-06T19:51:45.137Z,-8.20
2023-02-06T19:54:15.326Z,-8.30
2023-02-06T19:56:47.088Z,-8.30
2023-02-06T19:59:20.754Z,-8.30
2023-02-06T20:01:52.591Z,-8.30
2023-02-06T20:04:27.205Z,-8.30
2023-02-06T20:06:57.384Z,-8.30
2023-02-06T20:09:29.167Z,-8.30
2023-02-06T20:12:00.115Z,-8.30
2023-02-06T20:14:30.369Z,-8.30
2023-02-06T20:17:00.633Z,-8.40
2023-02-06T20:19:33.625Z,-8.40
2023-02-06T20:22:04.495Z,-8.40
2023-02-06T20:24:35.911Z,-8.40
2023-02-06T20:27:08.617Z,-8.40
2023-02-06T20:29:43.327Z,-8.40
2023-02-06T20:32:15.802Z,-8.50
2023-02-06T20:34:48.580Z,-8.50
2023-02-06T20:37:18.557Z,-8.40
2023-02-06T20:39:49.268Z,-8.40
2023-02-06T20:42:19.656Z,-8.40
2023-02-06T20:44:50.447Z,-8.40
2023-02-06T20:47:20.520Z,-8.40
2023-02-06T20:49:53.454Z,-8.30
2023-02-06T20:52:23.398Z,-8.30
2023-02-06T20:54:53.488Z,-8.40
2023-02-06T20:57:23.448Z,-8.40
2023-02-06T20:59:53.548Z,-8.40
2023-02-06T21:02:23.506Z,-8.40
2023-02-06T21:04:56.201Z,-8.50
2023-02-06T21:07:26.853Z,-8.40
2023-02-06T21:09:56.914Z,-8.50
2023-02-06T21:12:27.068Z,-8.60
2023-02-06T21:14:57.014Z,-8.50
2023-02-06T21:17:27.098Z,-8.60
2023-02-06T21:19:59.655Z,-8.50
2023-02-06T21:22:29.615Z,-8.50
2023-02-06T21:25:00.040Z,-8.50
2023-02-06T21:27:31.871Z,-8.60
2023-02-06T21:30:02.177Z,-8.70
2023-02-06T21:32:32.094Z,-8.80
2023-02-06T21:35:04.713Z,-8.90
2023-02-06T21:37:34.696Z,-8.90
2023-02-06T21:40:04.684Z,-8.90
2023-02-06T21:42:34.910Z,-8.90
2023-02-06T21:45:04.804Z,-8.90
2023-02-06T21:47:34.714Z,-8.90
2023-02-06T21:50:07.876Z,-9.00
2023-02-06T21:52:37.932Z,-8.90
2023-02-06T21:55:08.372Z,-8.80
2023-02-06T21:57:38.343Z,-8.90
2023-02-06T22:00:09.994Z,-8.90
2023-02-06T22:02:42.929Z,-9.00
2023-02-06T22:05:15.472Z,-9.00
2023-02-06T22:07:45.697Z,-9.00
2023-02-06T22:10:15.702Z,-8.90
2023-02-06T22:12:45.634Z,-8.90
2023-02-06T22:15:15.579Z,-8.90
2023-02-06T22:17:45.536Z,-9.00
2023-02-06T22:20:18.400Z,-9.00
2023-02-06T22:22:48.390Z,-9.00
2023-02-06T22:25:18.365Z,-9.00
2023-02-06T22:27:48.415Z,-8.90
2023-02-06T22:30:18.645Z,-8.90
2023-02-06T22:32:48.612Z,-8.90
2023-02-06T22:35:21.648Z,-8.90
2023-02-06T22:37:51.598Z,-8.80
2023-02-06T22:40:21.844Z,-9.10
2023-02-06T22:42:51.828Z,-9.10
2023-02-06T22:45:21.759Z,-9.00
2023-02-06T22:47:51.795Z,-9.00
2023-02-06T22:50:24.799Z,-8.90
2023-02-06T22:53:07.086Z,-8.90
2023-02-06T22:55:53.888Z,-8.90
2023-02-06T22:58:23.847Z,-9.00
2023-02-06T23:00:53.921Z,-9.00
2023-02-06T23:03:23.913Z,-9.10
2023-02-06T23:05:56.490Z,-9.00
2023-02-06T23:08:26.693Z,-9.10
2023-02-06T23:10:56.648Z,-9.10
2023-02-06T23:13:26.624Z,-9.20
2023-02-06T23:15:58.314Z,-9.30
2023-02-06T23:18:29.678Z,-9.30
2023-02-06T23:21:04.866Z,-9.20
2023-02-06T23:23:34.894Z,-9.30
2023-02-06T23:26:04.885Z,-9.30
2023-02-06T23:28:34.847Z,-9.30
2023-02-06T23:31:05.676Z,-9.30
2023-02-06T23:33:35.843Z,-9.20
2023-02-06T23:36:11.583Z,-9.10
2023-02-06T23:38:41.956Z,-9.00
2023-02-06T23:41:13.229Z,-9.00
2023-02-06T23:43:43.333Z,-9.00
2023-02-06T23:46:15.595Z,-9.00
2023-02-06T23:48:45.607Z,-9.10
2023-02-06T23:51:19.243Z,-9.00
2023-02-06T23:53:49.288Z,-9.10
2023-02-06T23:56:22.107Z,-9.20
2023-02-06T23:58:52.582Z,-9.20
